Hauptseite
METAR-TAF:

METAR-TAF

Flughäfen :

Flughafen Cherbourg-Maupertus

Cherbourg, Frankreich

Breite: 49-39N, Länge: 001-28W, Höhe: 138 m

Beobachtung

Neuester Wetterbericht von vor 18 Stunden und 25 Minuten, um 09:30 UTC
Wind 15 kt aus Nord/Nordost
Temperatur 11°C
Luftfeuchtigkeit 66%
Luftdruck 1036 hPa
Sichtweite 10 km oder mehr
Geschlossene Wolkendecke in der Höhe von 3500 ft

METAR: LFRC 220930Z AUTO 03015KT 9999 OVC035 11/05 Q1036 BECMG 02015G25KT

Zeit: 05:55 (03:55 UTC)

Prognose

Neuester Wetterbericht von vor 19 Stunden und 55 Minuten, um 08:00 UTC
Gültige Prognose vom 22 um 09 UTC bis 22 um 18 UTC
Wind 15 kt aus Nord/Nordost, Böen bis zu 25 kt
Sichtweite 10 km oder mehr
Durchbrochene Bewölkung in der Höhe von 3000 ft

TAF: LFRC 220800Z 2209/2218 02015G25KT 9999 BKN030

Wetterbeobachtungen und Prognosen von mehr als 4000 Flughäfen (METAR und TAF Bericht).

Die verfügbaren Stationen werden durch gelbe und rote Markierungen auf der Karte dargestellt.

Führen Sie die Maus auf sie, um den Namen der Station zu sehen.

Darauf klicken, um die Beobachtung von Wetterbeobachtungen und Prognosen zu sehen.

Um die Karte zu ändern : klicken Sie auf den grünen Tasten mit einem schwarzen Kreuz Zum Vergrößern, auf den grünen Button mit einem Gedankenstrich zu verkleinern, oder auf die grünen Pfeile für benachbarte Karten.


METAR-TAF: